createdAt,value
2023-04-21T00:00:09.473Z,7.46
2023-04-21T00:05:11.017Z,7.5
2023-04-21T00:10:12.199Z,7.44
2023-04-21T00:15:14.172Z,7.46
2023-04-21T00:20:16.349Z,7.43
2023-04-21T00:25:18.347Z,7.46
2023-04-21T00:30:19.990Z,7.47
2023-04-21T00:35:21.687Z,7.51
2023-04-21T00:40:23.106Z,7.51
2023-04-21T00:45:24.821Z,7.53
2023-04-21T00:50:26.537Z,7.51
2023-04-21T00:55:27.812Z,7.49
2023-04-21T01:00:29.626Z,7.45
2023-04-21T01:05:31.038Z,7.45
2023-04-21T01:10:33.110Z,7.45
2023-04-21T01:15:34.984Z,7.47
2023-04-21T01:20:36.712Z,7.45
2023-04-21T01:25:38.143Z,7.45
2023-04-21T01:30:40.149Z,7.46
2023-04-21T01:35:42.049Z,7.46
2023-04-21T01:40:43.291Z,7.44
2023-04-21T01:45:45.395Z,7.42
2023-04-21T01:50:46.881Z,7.38
2023-04-21T01:55:48.803Z,7.33
2023-04-21T02:00:50.528Z,7.25
2023-04-21T02:05:52.713Z,7.17
2023-04-21T02:10:54.628Z,7.05
2023-04-21T02:16:06.101Z,6.96
2023-04-21T02:20:57.374Z,6.83
2023-04-21T02:25:58.782Z,6.7
2023-04-21T02:31:00.364Z,6.57
2023-04-21T02:36:02.284Z,6.44
2023-04-21T02:41:03.804Z,6.32
2023-04-21T02:46:05.501Z,6.23
2023-04-21T02:51:07.175Z,6.18
2023-04-21T02:56:09.319Z,6.14
2023-04-21T03:01:10.963Z,6.08
2023-04-21T03:06:12.355Z,6.07
2023-04-21T03:11:13.794Z,6.03
2023-04-21T03:16:15.999Z,5.99
2023-04-21T03:21:17.504Z,5.95
2023-04-21T03:26:19.649Z,5.94
2023-04-21T03:31:21.897Z,5.94
2023-04-21T03:36:23.871Z,5.94
2023-04-21T03:41:25.500Z,5.93
2023-04-21T03:46:27.090Z,5.9
2023-04-21T03:51:28.369Z,5.86
2023-04-21T03:56:30.302Z,5.86
2023-04-21T04:01:32.459Z,5.84
2023-04-21T04:06:34.184Z,5.82
2023-04-21T04:11:35.967Z,5.83
2023-04-21T04:16:37.247Z,5.8
2023-04-21T04:21:39.277Z,5.8
2023-04-21T04:26:41.102Z,5.77
2023-04-21T04:31:42.823Z,5.76
2023-04-21T04:36:44.586Z,5.76
2023-04-21T04:41:46.495Z,5.75
2023-04-21T04:46:48.441Z,5.77
2023-04-21T04:51:50.051Z,5.8
2023-04-21T04:56:51.821Z,5.8
2023-04-21T05:01:53.565Z,5.79
2023-04-21T05:06:54.968Z,5.77
2023-04-21T05:11:56.336Z,5.74
2023-04-21T05:16:57.738Z,5.7
2023-04-21T05:21:59.306Z,5.68
2023-04-21T05:27:07.779Z,5.71
2023-04-21T05:32:09.526Z,5.77
2023-04-21T05:37:11.277Z,5.85
2023-04-21T05:42:12.895Z,5.93
2023-04-21T05:47:14.855Z,6.02
2023-04-21T05:52:16.223Z,6.12
2023-04-21T05:57:18.044Z,6.24
2023-04-21T06:02:19.864Z,6.35
2023-04-21T06:07:21.419Z,6.44
2023-04-21T06:12:23.567Z,6.54
2023-04-21T06:17:25.465Z,6.62
2023-04-21T06:22:27.042Z,6.66
2023-04-21T06:27:28.393Z,6.7
2023-04-21T06:32:30.007Z,6.74
2023-04-21T06:37:31.854Z,6.8
2023-04-21T06:42:33.356Z,6.87
2023-04-21T06:47:34.900Z,6.95
2023-04-21T06:52:36.394Z,7.04
2023-04-21T06:57:37.820Z,7.16
2023-04-21T07:02:39.552Z,7.32
2023-04-21T07:07:41.006Z,7.48
2023-04-21T07:12:42.457Z,7.63
2023-04-21T07:17:44.073Z,7.84
2023-04-21T07:22:45.887Z,8.01
2023-04-21T07:27:47.103Z,8.16
2023-04-21T07:32:49.097Z,8.38
2023-04-21T07:37:50.340Z,8.6
2023-04-21T07:42:52.325Z,8.81
2023-04-21T07:47:54.159Z,9.03
2023-04-21T07:52:55.930Z,9.22
2023-04-21T07:57:57.881Z,9.42
2023-04-21T08:02:59.374Z,9.59
2023-04-21T08:08:00.800Z,9.76
2023-04-21T08:13:02.911Z,9.95
2023-04-21T08:18:04.153Z,10.13
2023-04-21T08:23:05.398Z,10.34
2023-04-21T08:28:07.329Z,10.52
2023-04-21T08:33:09.126Z,10.7
2023-04-21T08:38:11.173Z,10.85
2023-04-21T08:43:12.429Z,11
2023-04-21T08:48:14.525Z,11.17
2023-04-21T08:53:15.769Z,11.34
2023-04-21T08:58:17.570Z,11.53
2023-04-21T09:03:25.316Z,11.7
2023-04-21T09:08:21.065Z,11.89
2023-04-21T09:13:22.769Z,12.1
2023-04-21T09:18:29.515Z,12.29
2023-04-21T09:23:26.212Z,12.51
2023-04-21T09:28:28.245Z,12.76
2023-04-21T09:33:34.506Z,13
2023-04-21T09:38:32.131Z,13.25
2023-04-21T09:43:33.516Z,13.6
2023-04-21T09:48:35.117Z,13.87
2023-04-21T09:53:36.862Z,14.08
2023-04-21T09:58:38.348Z,14.31
2023-04-21T10:03:39.760Z,14.5
2023-04-21T10:08:41.232Z,14.71
2023-04-21T10:13:42.548Z,14.96
2023-04-21T10:18:44.038Z,15.25
2023-04-21T10:23:45.651Z,15.54
2023-04-21T10:28:47.039Z,15.8
2023-04-21T10:33:48.940Z,15.98
2023-04-21T10:38:50.147Z,16.12
2023-04-21T11:03:58.426Z,16.87
2023-04-21T11:34:08.226Z,18.6
2023-04-21T11:54:15.010Z,19.81
2023-04-21T12:29:27.048Z,23.65
2023-04-21T12:44:32.277Z,25.74
2023-04-21T13:24:46.749Z,29.99
2023-04-21T13:39:51.306Z,29.8
2023-04-21T13:44:53.148Z,29.81
2023-04-21T13:49:54.647Z,29.89
2023-04-21T13:54:56.675Z,30.15
2023-04-21T13:59:58.595Z,30.31
2023-04-21T14:05:00.850Z,30.23
2023-04-21T14:10:02.495Z,30.53
2023-04-21T14:15:04.326Z,31.51
2023-04-21T14:20:06.510Z,32.77
2023-04-21T14:25:08.413Z,34.04
2023-04-21T14:30:10.216Z,35.25
2023-04-21T14:35:12.059Z,36.28
2023-04-21T14:40:13.938Z,37.15
2023-04-21T14:45:15.265Z,37.9
2023-04-21T14:50:17.161Z,38.47
2023-04-21T14:55:18.899Z,38.96
2023-04-21T15:00:20.874Z,39.15
2023-04-21T15:05:22.721Z,39.34
2023-04-21T15:10:23.907Z,39.47
2023-04-21T15:15:25.509Z,39.61
2023-04-21T15:20:40.934Z,39.8
2023-04-21T15:25:29.136Z,39.61
2023-04-21T15:30:30.677Z,39.18
2023-04-21T15:35:32.593Z,38.93
2023-04-21T15:40:33.974Z,38.37
2023-04-21T15:45:36.047Z,38.15
2023-04-21T15:50:38.088Z,37.78
2023-04-21T15:55:40.136Z,37.23
2023-04-21T16:00:41.473Z,36.97
2023-04-21T16:05:43.310Z,35.9
2023-04-21T16:10:45.237Z,35.64
2023-04-21T16:15:47.118Z,34.89
2023-04-21T16:20:48.469Z,34.18
2023-04-21T16:25:50.487Z,33.49
2023-04-21T16:30:52.218Z,32.82
2023-04-21T16:35:55.387Z,31.9
2023-04-21T16:40:56.012Z,31.03
2023-04-21T16:45:57.583Z,30.38
2023-04-21T16:50:59.417Z,29.6
2023-04-21T16:56:00.743Z,29.1
2023-04-21T17:01:11.845Z,28.23
2023-04-21T17:06:04.659Z,27.35
2023-04-21T17:11:06.184Z,26.55
2023-04-21T17:16:07.873Z,25.78
2023-04-21T17:21:09.696Z,25.06
2023-04-21T17:26:13.222Z,24.28
2023-04-21T17:31:16.018Z,23.56
2023-04-21T17:36:15.245Z,22.88
2023-04-21T17:41:17.192Z,22.13
2023-04-21T17:46:19.289Z,21.42
2023-04-21T17:51:20.515Z,20.8
2023-04-21T17:56:22.351Z,20.07
2023-04-21T18:01:24.289Z,19.53
2023-04-21T18:06:26.005Z,19.04
2023-04-21T18:11:27.606Z,18.65
2023-04-21T18:16:29.250Z,18.27
2023-04-21T18:21:30.825Z,17.84
2023-04-21T18:26:32.623Z,17.56
2023-04-21T18:31:34.599Z,17.33
2023-04-21T18:36:38.446Z,17.06
2023-04-21T18:41:37.901Z,16.69
2023-04-21T18:46:39.442Z,16.35
2023-04-21T18:51:40.698Z,16.06
2023-04-21T18:56:41.987Z,15.69
2023-04-21T19:01:44.139Z,15.35
2023-04-21T19:06:45.379Z,15.01
2023-04-21T19:11:47.070Z,14.74
2023-04-21T19:16:48.722Z,14.4
2023-04-21T19:21:50.057Z,14.19
2023-04-21T19:26:51.636Z,13.83
2023-04-21T19:31:53.060Z,13.66
2023-04-21T19:36:54.242Z,13.44
2023-04-21T19:41:56.051Z,13.11
2023-04-21T19:46:57.246Z,12.9
2023-04-21T19:51:59.413Z,12.73
2023-04-21T19:57:01.533Z,12.62
2023-04-21T20:02:03.526Z,12.54
2023-04-21T20:07:05.503Z,12.46
2023-04-21T20:12:06.931Z,12.37
2023-04-21T20:17:08.138Z,12.25
2023-04-21T20:22:09.591Z,12.07
2023-04-21T20:27:11.696Z,11.99
2023-04-21T20:32:12.975Z,11.86
2023-04-21T20:37:14.234Z,11.62
2023-04-21T20:42:15.573Z,11.54
2023-04-21T20:47:16.977Z,11.45
2023-04-21T20:52:18.716Z,11.37
2023-04-21T20:57:19.960Z,11.29
2023-04-21T21:02:21.728Z,11.26
2023-04-21T21:07:23.505Z,11.25
2023-04-21T21:12:25.245Z,11.2
2023-04-21T21:17:26.554Z,11.1
2023-04-21T21:22:27.809Z,11.09
2023-04-21T21:27:29.720Z,11.03
2023-04-21T21:32:31.395Z,10.9
2023-04-21T21:37:33.437Z,10.81
2023-04-21T21:42:34.745Z,10.83
2023-04-21T21:47:40.462Z,10.74
2023-04-21T21:52:39.050Z,10.71
2023-04-21T21:57:41.154Z,10.73
2023-04-21T22:02:43.458Z,10.81
2023-04-21T22:07:44.605Z,10.84
2023-04-21T22:12:52.485Z,10.84
2023-04-21T22:17:53.954Z,10.8
2023-04-21T22:22:55.231Z,10.76
2023-04-21T22:27:57.235Z,10.66
2023-04-21T22:32:59.257Z,10.55
2023-04-21T22:38:00.678Z,10.49
2023-04-21T22:43:02.180Z,10.35
2023-04-21T22:48:03.869Z,10.25
2023-04-21T22:53:05.675Z,10.21
2023-04-21T22:58:07.579Z,10.17
2023-04-21T23:03:09.513Z,10.1
2023-04-21T23:08:11.263Z,10.1
2023-04-21T23:13:13.097Z,10.12
2023-04-21T23:18:14.688Z,10.09
2023-04-21T23:23:16.122Z,9.93
2023-04-21T23:28:17.886Z,9.83
2023-04-21T23:33:19.284Z,9.72
2023-04-21T23:38:20.534Z,9.74
2023-04-21T23:43:22.514Z,9.71
2023-04-21T23:48:24.034Z,9.71
2023-04-21T23:53:25.677Z,9.68
2023-04-21T23:58:27.713Z,9.66
